createdAt,value
2022-12-31T00:00:11.984Z,0.30
2022-12-31T00:02:39.217Z,0.25
2022-12-31T00:05:07.584Z,0.32
2022-12-31T00:10:02.862Z,0.47
2022-12-31T00:12:29.568Z,0.70
2022-12-31T00:14:56.185Z,0.30
2022-12-31T00:17:22.796Z,0.60
2022-12-31T00:19:49.449Z,0.40
2022-12-31T00:22:16.195Z,0.90
2022-12-31T00:24:42.835Z,0.60
2022-12-31T00:27:09.571Z,0.40
2022-12-31T00:29:36.186Z,0.57
2022-12-31T00:32:02.847Z,0.73
2022-12-31T00:34:29.528Z,0.40
2022-12-31T00:36:56.268Z,0.57
2022-12-31T00:39:22.951Z,0.52
2022-12-31T00:41:49.658Z,0.80
2022-12-31T00:44:16.302Z,0.70
2022-12-31T00:49:09.423Z,0.50
2022-12-31T00:51:36.240Z,0.70
2022-12-31T00:54:03.138Z,1.05
2022-12-31T00:56:31.538Z,0.98
2022-12-31T00:59:00.107Z,0.65
2022-12-31T01:01:36.737Z,0.52
2022-12-31T01:04:15.231Z,0.38
2022-12-31T01:06:43.553Z,0.40
2022-12-31T01:09:12.637Z,0.52
2022-12-31T01:11:39.382Z,0.30
2022-12-31T01:14:12.868Z,0.25
2022-12-31T01:16:53.711Z,0.40
2022-12-31T01:19:28.131Z,0.25
2022-12-31T01:21:55.856Z,0.30
2022-12-31T01:24:23.132Z,0.30
2022-12-31T01:26:51.145Z,0.30
2022-12-31T01:29:17.882Z,0.52
2022-12-31T01:31:44.529Z,0.50
2022-12-31T01:34:11.194Z,0.22
2022-12-31T01:36:38.601Z,0.35
2022-12-31T01:39:07.747Z,0.32
2022-12-31T01:41:39.124Z,0.50
2022-12-31T01:44:11.794Z,0.35
2022-12-31T01:46:52.829Z,0.30
2022-12-31T01:49:53.894Z,0.22
2022-12-31T01:52:36.767Z,0.20
2022-12-31T01:55:29.709Z,0.10
2022-12-31T01:58:05.288Z,0.10
2022-12-31T02:00:32.978Z,0.10
2022-12-31T02:03:00.228Z,0.03
2022-12-31T02:05:32.397Z,0.00
2022-12-31T02:07:59.211Z,0.00
2022-12-31T02:10:26.069Z,0.00
2022-12-31T02:12:52.899Z,0.00
2022-12-31T02:15:26.036Z,0.00
2022-12-31T02:18:00.967Z,0.00
2022-12-31T02:21:10.876Z,0.10
2022-12-31T02:23:52.025Z,0.00
2022-12-31T02:26:27.540Z,0.00
2022-12-31T02:29:18.682Z,0.10
2022-12-31T02:31:56.037Z,0.10
2022-12-31T02:34:32.522Z,0.00
2022-12-31T02:37:03.536Z,0.10
2022-12-31T02:39:31.520Z,0.45
2022-12-31T02:42:00.971Z,0.10
2022-12-31T02:44:29.242Z,0.10
2022-12-31T02:47:09.517Z,0.10
2022-12-31T02:50:19.957Z,0.10
2022-12-31T02:53:21.571Z,0.10
2022-12-31T02:56:15.179Z,0.05
2022-12-31T02:59:26.857Z,0.10
2022-12-31T03:02:16.601Z,0.17
2022-12-31T03:04:54.487Z,0.10
2022-12-31T03:07:27.872Z,0.03
2022-12-31T03:09:55.505Z,0.08
2022-12-31T03:12:46.872Z,0.00
2022-12-31T03:15:30.185Z,0.20
2022-12-31T03:18:02.772Z,0.10
2022-12-31T03:21:03.038Z,0.30
2022-12-31T03:23:42.863Z,0.10
2022-12-31T03:26:12.318Z,0.17
2022-12-31T03:28:41.910Z,0.10
2022-12-31T03:31:09.461Z,0.10
2022-12-31T03:33:40.085Z,0.00
2022-12-31T03:36:11.743Z,0.10
2022-12-31T03:38:39.215Z,0.10
2022-12-31T03:41:06.300Z,0.00
2022-12-31T03:43:32.924Z,1.58
2022-12-31T03:46:01.407Z,0.10
2022-12-31T03:48:28.234Z,0.30
2022-12-31T03:50:54.973Z,0.10
2022-12-31T03:53:21.858Z,0.03
2022-12-31T03:55:53.278Z,0.85
2022-12-31T03:58:21.041Z,0.45
2022-12-31T04:00:47.752Z,0.10
2022-12-31T04:03:14.418Z,0.20
2022-12-31T04:05:41.144Z,0.25
2022-12-31T04:08:07.748Z,0.10
2022-12-31T04:10:34.550Z,0.10
2022-12-31T04:13:04.249Z,0.10
2022-12-31T04:15:30.860Z,0.57
2022-12-31T04:17:57.453Z,0.10
2022-12-31T04:20:24.010Z,0.32
2022-12-31T04:22:50.607Z,0.10
2022-12-31T04:25:17.388Z,0.13
2022-12-31T04:27:44.081Z,0.10
2022-12-31T04:30:13.241Z,0.10
2022-12-31T04:32:40.057Z,0.20
2022-12-31T04:35:07.767Z,0.10
2022-12-31T04:37:34.539Z,0.43
2022-12-31T04:40:05.859Z,0.20
2022-12-31T04:42:33.796Z,0.20
2022-12-31T04:45:00.415Z,0.10
2022-12-31T04:47:27.243Z,0.10
2022-12-31T04:49:53.845Z,0.10
2022-12-31T04:52:20.453Z,0.03
2022-12-31T04:54:47.017Z,0.10
2022-12-31T04:57:13.647Z,0.13
2022-12-31T04:59:40.262Z,0.20
2022-12-31T05:02:07.100Z,0.20
2022-12-31T05:04:33.871Z,0.38
2022-12-31T05:07:00.730Z,0.10
2022-12-31T05:09:28.312Z,0.17
2022-12-31T05:11:55.281Z,0.00
2022-12-31T05:14:22.525Z,0.20
2022-12-31T05:16:49.237Z,0.28
2022-12-31T05:19:16.193Z,0.30
2022-12-31T05:21:42.789Z,0.20
2022-12-31T05:24:09.377Z,0.40
2022-12-31T05:26:36.010Z,0.13
2022-12-31T05:29:02.654Z,0.20
2022-12-31T05:31:29.241Z,0.45
2022-12-31T05:33:56.058Z,0.28
2022-12-31T05:36:22.802Z,0.10
2022-12-31T05:38:49.435Z,0.20
2022-12-31T05:41:16.128Z,0.60
2022-12-31T05:43:42.721Z,0.20
2022-12-31T05:46:09.351Z,0.45
2022-12-31T05:48:36.013Z,0.35
2022-12-31T05:51:02.755Z,0.43
2022-12-31T05:53:29.712Z,0.20
2022-12-31T05:55:56.312Z,0.30
2022-12-31T05:58:22.933Z,0.45
2022-12-31T06:00:50.858Z,0.20
2022-12-31T06:03:17.550Z,0.40
2022-12-31T06:05:44.362Z,0.57
2022-12-31T06:08:12.285Z,0.35
2022-12-31T06:10:40.155Z,0.50
2022-12-31T06:13:07.509Z,1.15
2022-12-31T06:15:40.137Z,0.45
2022-12-31T06:18:07.576Z,0.50
2022-12-31T06:20:37.834Z,0.50
2022-12-31T06:23:05.572Z,0.22
2022-12-31T06:25:34.721Z,0.88
2022-12-31T06:28:01.349Z,0.55
2022-12-31T06:30:28.021Z,0.70
2022-12-31T06:32:55.851Z,0.40
2022-12-31T06:35:22.703Z,0.90
2022-12-31T06:37:49.438Z,0.40
2022-12-31T06:40:16.199Z,0.57
2022-12-31T06:42:42.801Z,0.40
2022-12-31T06:45:10.013Z,0.70
2022-12-31T06:47:36.809Z,0.50
2022-12-31T06:50:03.802Z,0.57
2022-12-31T06:52:30.482Z,0.50
2022-12-31T06:54:57.503Z,0.35
2022-12-31T06:57:24.842Z,0.50
2022-12-31T06:59:51.973Z,0.40
2022-12-31T07:02:49.935Z,0.55
2022-12-31T07:05:38.389Z,0.45
2022-12-31T07:08:26.008Z,0.77
2022-12-31T07:11:14.364Z,0.65
2022-12-31T07:14:17.318Z,0.40
2022-12-31T07:17:04.429Z,0.43
2022-12-31T07:19:36.865Z,0.40
2022-12-31T07:22:04.085Z,0.40
2022-12-31T07:24:31.002Z,0.60
2022-12-31T07:27:28.557Z,0.45
2022-12-31T07:30:21.479Z,0.50
2022-12-31T07:33:09.220Z,0.45
2022-12-31T07:36:06.948Z,0.60
2022-12-31T07:38:57.012Z,0.50
2022-12-31T07:41:34.807Z,0.50
2022-12-31T07:44:13.519Z,0.20
2022-12-31T07:46:56.072Z,0.43
2022-12-31T07:49:25.332Z,0.60
2022-12-31T07:51:52.949Z,0.30
2022-12-31T07:54:20.125Z,1.00
2022-12-31T07:56:47.827Z,0.32
2022-12-31T07:59:24.862Z,0.65
2022-12-31T08:02:06.919Z,0.47
2022-12-31T08:05:21.017Z,0.55
2022-12-31T08:08:11.062Z,0.50
2022-12-31T08:10:39.375Z,0.40
2022-12-31T08:13:11.710Z,0.50
2022-12-31T08:15:39.819Z,0.45
2022-12-31T08:18:08.146Z,0.30
2022-12-31T08:20:49.406Z,0.30
2022-12-31T08:23:24.439Z,0.40
2022-12-31T08:26:11.698Z,0.50
2022-12-31T08:29:01.710Z,0.50
2022-12-31T08:31:48.072Z,0.57
2022-12-31T08:34:28.960Z,0.50
2022-12-31T08:37:10.885Z,0.70
2022-12-31T08:40:07.253Z,0.68
2022-12-31T08:43:24.617Z,0.47
2022-12-31T08:45:53.959Z,0.45
2022-12-31T08:48:41.092Z,0.50
2022-12-31T08:51:18.691Z,1.05
2022-12-31T08:53:45.950Z,0.52
2022-12-31T08:56:40.094Z,0.82
2022-12-31T08:59:47.190Z,1.08
2022-12-31T09:02:48.213Z,0.80
2022-12-31T09:05:38.538Z,0.60
2022-12-31T09:08:47.035Z,0.57
2022-12-31T09:11:49.593Z,0.50
2022-12-31T09:14:38.128Z,0.47
2022-12-31T09:17:42.024Z,0.47
2022-12-31T09:20:24.624Z,1.60
2022-12-31T09:22:53.354Z,0.40
2022-12-31T09:25:22.647Z,0.70
2022-12-31T09:27:58.301Z,0.55
2022-12-31T09:34:05.205Z,0.50
2022-12-31T09:36:44.738Z,0.65
2022-12-31T09:39:16.889Z,0.60
2022-12-31T09:42:19.987Z,0.40
2022-12-31T09:45:43.424Z,0.50
2022-12-31T09:48:27.738Z,1.70
2022-12-31T09:51:06.908Z,0.90
2022-12-31T09:54:09.243Z,0.70
2022-12-31T09:57:20.806Z,0.73
2022-12-31T10:00:21.080Z,0.65
2022-12-31T10:03:02.821Z,0.60
2022-12-31T10:06:01.373Z,0.85
2022-12-31T10:08:43.351Z,0.68
2022-12-31T10:11:51.491Z,0.40
2022-12-31T10:14:48.925Z,0.85
2022-12-31T10:18:12.779Z,1.63
2022-12-31T10:21:01.047Z,0.60
2022-12-31T10:23:30.467Z,0.50
2022-12-31T10:26:25.235Z,0.47
2022-12-31T10:29:14.625Z,0.63
2022-12-31T10:31:58.998Z,0.65
2022-12-31T10:34:43.451Z,0.90
2022-12-31T10:37:38.368Z,0.73
2022-12-31T10:40:39.646Z,0.73
2022-12-31T10:43:34.089Z,0.68
2022-12-31T10:46:36.171Z,0.70
2022-12-31T10:49:34.955Z,1.00
2022-12-31T10:52:52.860Z,1.05
2022-12-31T10:55:57.274Z,0.88
2022-12-31T10:58:45.186Z,0.63
2022-12-31T11:01:34.413Z,0.90
2022-12-31T11:04:22.773Z,1.25
2022-12-31T11:07:26.931Z,0.73
2022-12-31T11:10:23.846Z,0.80
2022-12-31T11:13:21.336Z,0.50
2022-12-31T11:16:29.077Z,0.70
2022-12-31T11:19:26.996Z,0.70
2022-12-31T11:22:40.238Z,0.47
2022-12-31T11:25:18.309Z,1.60
2022-12-31T11:28:22.570Z,0.60
2022-12-31T11:31:01.170Z,0.55
2022-12-31T11:33:46.804Z,0.50
2022-12-31T11:36:54.269Z,0.70
2022-12-31T11:40:15.269Z,1.02
2022-12-31T11:43:04.836Z,0.45
2022-12-31T11:46:03.381Z,0.47
2022-12-31T11:49:06.537Z,1.30
2022-12-31T11:51:39.109Z,0.70
2022-12-31T11:54:50.857Z,1.30
2022-12-31T11:57:38.427Z,0.88
2022-12-31T12:00:19.829Z,0.65
2022-12-31T12:02:53.123Z,1.30
2022-12-31T12:05:24.408Z,0.90
2022-12-31T12:07:53.003Z,1.90
2022-12-31T12:10:36.030Z,0.60
2022-12-31T12:13:16.573Z,0.77
2022-12-31T12:16:02.477Z,0.70
2022-12-31T12:19:17.655Z,0.77
2022-12-31T12:21:49.429Z,0.80
2022-12-31T12:24:29.145Z,1.00
2022-12-31T12:26:57.438Z,1.30
2022-12-31T12:29:35.599Z,0.82
2022-12-31T12:32:25.429Z,0.70
2022-12-31T12:34:53.629Z,1.05
2022-12-31T12:37:33.021Z,0.80
2022-12-31T12:40:18.394Z,0.88
2022-12-31T12:42:51.331Z,0.68
2022-12-31T12:45:29.011Z,1.00
2022-12-31T12:48:03.021Z,1.65
2022-12-31T12:50:45.742Z,0.65
2022-12-31T12:53:38.148Z,1.40
2022-12-31T12:56:13.789Z,1.02
2022-12-31T13:02:50.580Z,0.75
2022-12-31T13:06:03.584Z,1.00
2022-12-31T13:08:49.486Z,0.85
2022-12-31T13:11:40.471Z,0.98
2022-12-31T13:14:44.509Z,1.15
2022-12-31T13:17:26.255Z,0.88
2022-12-31T13:20:07.236Z,1.20
2022-12-31T13:23:36.279Z,1.27
2022-12-31T13:26:31.714Z,1.20
2022-12-31T13:29:00.579Z,1.00
2022-12-31T13:31:36.365Z,1.00
2022-12-31T13:34:14.994Z,0.88
2022-12-31T13:36:45.853Z,0.82
2022-12-31T13:39:44.901Z,2.28
2022-12-31T13:42:27.029Z,1.25
2022-12-31T13:45:03.743Z,1.02
2022-12-31T13:47:56.282Z,1.00
2022-12-31T13:50:36.339Z,1.00
2022-12-31T13:53:38.511Z,0.90
2022-12-31T13:56:19.826Z,1.38
2022-12-31T13:59:06.573Z,0.70
2022-12-31T14:01:39.849Z,1.00
2022-12-31T14:04:27.337Z,0.93
2022-12-31T14:07:14.804Z,1.27
2022-12-31T14:09:42.431Z,0.98
2022-12-31T14:12:18.332Z,0.77
2022-12-31T14:15:11.515Z,1.13
2022-12-31T14:18:27.159Z,1.75
2022-12-31T14:21:09.122Z,1.13
2022-12-31T14:24:13.934Z,1.08
2022-12-31T14:26:52.524Z,1.17
2022-12-31T14:29:44.940Z,1.08
2022-12-31T14:32:45.396Z,1.90
2022-12-31T14:36:00.439Z,1.25
2022-12-31T14:41:33.663Z,1.05
2022-12-31T14:44:37.916Z,1.38
2022-12-31T14:47:21.019Z,1.48
2022-12-31T14:49:56.820Z,1.00
2022-12-31T14:52:48.379Z,1.30
2022-12-31T14:55:15.074Z,1.08
2022-12-31T14:58:17.190Z,1.30
2022-12-31T15:00:38.696Z,1.60
2022-12-31T15:03:14.430Z,1.48
2022-12-31T15:06:03.509Z,1.30
2022-12-31T15:09:14.387Z,1.60
2022-12-31T15:12:01.419Z,1.45
2022-12-31T15:15:00.110Z,1.33
2022-12-31T15:18:02.698Z,1.10
2022-12-31T15:20:58.479Z,1.42
2022-12-31T15:23:38.263Z,2.07
2022-12-31T15:26:08.398Z,1.80
2022-12-31T15:28:41.971Z,1.83
2022-12-31T15:31:19.381Z,1.00
2022-12-31T15:34:03.698Z,1.40
2022-12-31T15:36:35.451Z,1.10
2022-12-31T15:39:07.891Z,1.17
2022-12-31T15:44:50.059Z,1.38
2022-12-31T15:47:35.265Z,1.30
2022-12-31T15:50:07.817Z,1.30
2022-12-31T15:52:47.917Z,1.30
2022-12-31T15:55:26.135Z,1.15
2022-12-31T15:57:58.194Z,1.60
2022-12-31T16:00:26.373Z,1.58
2022-12-31T16:02:55.768Z,1.40
2022-12-31T16:05:26.367Z,1.25
2022-12-31T16:07:58.986Z,1.63
2022-12-31T16:10:30.701Z,1.88
2022-12-31T16:12:59.702Z,1.30
2022-12-31T16:15:30.827Z,1.90
2022-12-31T16:18:22.510Z,1.80
2022-12-31T16:20:51.619Z,1.52
2022-12-31T16:23:25.516Z,1.50
2022-12-31T16:25:56.348Z,2.40
2022-12-31T16:28:29.826Z,1.40
2022-12-31T16:31:07.080Z,1.65
2022-12-31T16:33:34.279Z,7.28
2022-12-31T16:36:01.977Z,3.30
2022-12-31T16:38:37.685Z,1.80
2022-12-31T16:43:50.162Z,1.75
2022-12-31T16:46:27.973Z,1.65
2022-12-31T16:49:19.294Z,1.63
2022-12-31T16:51:46.005Z,1.52
2022-12-31T16:54:23.674Z,1.70
2022-12-31T16:56:51.711Z,1.42
2022-12-31T16:59:35.104Z,1.70
2022-12-31T17:02:11.734Z,1.67
2022-12-31T17:04:43.240Z,1.63
2022-12-31T17:07:31.620Z,1.40
2022-12-31T17:10:07.198Z,1.67
2022-12-31T17:13:00.986Z,1.75
2022-12-31T17:15:41.092Z,1.63
2022-12-31T17:18:14.803Z,1.77
2022-12-31T17:20:41.370Z,2.20
2022-12-31T17:23:09.196Z,1.73
2022-12-31T17:25:38.739Z,1.90
2022-12-31T17:28:18.210Z,1.92
2022-12-31T17:30:44.926Z,2.53
2022-12-31T17:33:14.584Z,1.60
2022-12-31T17:35:44.588Z,1.85
2022-12-31T17:38:23.416Z,1.83
2022-12-31T17:41:00.203Z,1.77
2022-12-31T17:43:33.085Z,2.00
2022-12-31T17:46:02.739Z,1.60
2022-12-31T17:48:29.559Z,1.75
2022-12-31T17:51:00.846Z,2.25
2022-12-31T17:53:27.772Z,1.48
2022-12-31T17:56:00.627Z,1.63
2022-12-31T17:58:38.071Z,1.20
2022-12-31T18:01:07.653Z,2.53
2022-12-31T18:03:34.560Z,1.85
2022-12-31T18:06:01.271Z,2.38
2022-12-31T18:08:28.953Z,1.98
2022-12-31T18:10:56.540Z,1.60
2022-12-31T18:13:26.868Z,1.95
2022-12-31T18:15:56.232Z,1.75
2022-12-31T18:18:29.706Z,2.03
2022-12-31T18:21:05.369Z,1.55
2022-12-31T18:26:20.369Z,1.70
2022-12-31T18:28:48.198Z,2.05
2022-12-31T18:31:23.769Z,1.85
2022-12-31T18:36:20.897Z,1.63
2022-12-31T18:38:47.738Z,1.60
2022-12-31T18:41:27.767Z,2.17
2022-12-31T18:43:55.229Z,2.17
2022-12-31T18:46:24.563Z,1.60
2022-12-31T18:48:51.404Z,1.90
2022-12-31T18:51:26.431Z,2.15
2022-12-31T18:53:58.008Z,1.70
2022-12-31T18:56:25.148Z,1.67
2022-12-31T18:58:52.307Z,1.60
2022-12-31T19:01:34.041Z,1.42
2022-12-31T19:04:10.986Z,1.45
2022-12-31T19:06:37.604Z,2.10
2022-12-31T19:09:13.151Z,1.73
2022-12-31T19:11:50.233Z,1.92
2022-12-31T19:14:21.636Z,1.88
2022-12-31T19:16:49.777Z,1.75
2022-12-31T19:19:17.407Z,2.53
2022-12-31T19:21:44.573Z,3.63
2022-12-31T19:24:26.557Z,2.92
2022-12-31T19:26:54.541Z,2.00
2022-12-31T19:29:27.859Z,1.52
2022-12-31T19:31:54.627Z,3.33
2022-12-31T19:34:21.377Z,2.40
2022-12-31T19:36:48.057Z,2.22
2022-12-31T19:39:18.185Z,3.03
2022-12-31T19:41:45.841Z,2.08
2022-12-31T19:44:19.802Z,2.88
2022-12-31T19:46:49.110Z,2.42
2022-12-31T19:49:16.432Z,2.13
2022-12-31T19:51:43.148Z,1.95
2022-12-31T19:54:13.522Z,2.22
2022-12-31T19:56:40.440Z,2.17
2022-12-31T19:59:09.747Z,2.40
2022-12-31T20:01:36.969Z,1.90
2022-12-31T20:04:04.148Z,2.53
2022-12-31T20:06:30.771Z,2.05
2022-12-31T20:08:57.406Z,2.33
2022-12-31T20:11:24.845Z,2.40
2022-12-31T20:13:53.528Z,1.80
2022-12-31T20:16:24.435Z,2.00
2022-12-31T20:18:51.297Z,2.53
2022-12-31T20:21:27.386Z,1.90
2022-12-31T20:23:55.218Z,2.47
2022-12-31T20:26:23.979Z,2.30
2022-12-31T20:28:51.879Z,2.50
2022-12-31T20:31:23.341Z,1.63
2022-12-31T20:33:50.171Z,1.55
2022-12-31T20:36:17.754Z,2.67
2022-12-31T20:38:44.788Z,1.60
2022-12-31T20:41:15.343Z,2.20
2022-12-31T20:43:42.341Z,1.90
2022-12-31T20:46:15.816Z,1.33
2022-12-31T20:48:44.418Z,2.65
2022-12-31T20:51:12.499Z,1.95
2022-12-31T20:53:39.155Z,2.28
2022-12-31T20:56:07.419Z,2.05
2022-12-31T20:58:34.714Z,1.55
2022-12-31T21:01:05.111Z,2.38
2022-12-31T21:06:19.161Z,1.65
2022-12-31T21:08:46.560Z,1.83
2022-12-31T21:11:32.935Z,2.60
2022-12-31T21:14:00.553Z,2.28
2022-12-31T21:16:27.881Z,1.70
2022-12-31T21:18:55.147Z,1.80
2022-12-31T21:21:22.388Z,1.90
2022-12-31T21:23:49.500Z,1.75
2022-12-31T21:26:16.344Z,1.95
2022-12-31T21:28:43.018Z,2.30
2022-12-31T21:31:12.977Z,2.72
2022-12-31T21:33:39.861Z,1.55
2022-12-31T21:36:06.736Z,2.13
2022-12-31T21:38:36.883Z,2.50
2022-12-31T21:41:05.845Z,1.80
2022-12-31T21:43:32.637Z,2.28
2022-12-31T21:46:05.342Z,2.65
2022-12-31T21:48:33.264Z,1.88
2022-12-31T21:51:12.777Z,2.17
2022-12-31T21:53:40.157Z,1.73
2022-12-31T21:56:08.961Z,1.65
2022-12-31T21:58:44.501Z,1.92
2022-12-31T22:01:40.026Z,3.03
2022-12-31T22:04:22.147Z,1.88
2022-12-31T22:06:54.568Z,2.10
2022-12-31T22:09:21.207Z,3.17
2022-12-31T22:11:47.877Z,1.92
2022-12-31T22:14:14.608Z,1.70
2022-12-31T22:16:41.247Z,2.08
2022-12-31T22:19:07.980Z,2.67
2022-12-31T22:21:34.615Z,2.47
2022-12-31T22:24:03.046Z,1.63
2022-12-31T22:26:29.742Z,2.78
2022-12-31T22:28:59.259Z,2.35
2022-12-31T22:31:29.935Z,2.53
2022-12-31T22:33:58.454Z,2.05
2022-12-31T22:36:25.166Z,2.45
2022-12-31T22:38:57.944Z,1.70
2022-12-31T22:41:26.630Z,1.85
2022-12-31T22:44:03.228Z,2.33
2022-12-31T22:46:32.382Z,2.00
2022-12-31T22:49:01.180Z,1.67
2022-12-31T22:51:57.699Z,2.22
2022-12-31T22:54:17.202Z,1.98
2022-12-31T22:56:43.928Z,1.98
2022-12-31T22:59:10.933Z,2.08
2022-12-31T23:01:37.618Z,2.00
2022-12-31T23:04:04.893Z,1.88
2022-12-31T23:06:31.952Z,2.05
2022-12-31T23:09:17.038Z,3.35
2022-12-31T23:11:43.704Z,7.93
2022-12-31T23:14:35.723Z,11.73
2022-12-31T23:17:31.150Z,13.00
2022-12-31T23:20:18.826Z,15.20
2022-12-31T23:23:05.891Z,14.40
2022-12-31T23:25:44.938Z,14.48
2022-12-31T23:28:22.423Z,12.40
2022-12-31T23:30:51.329Z,11.85
2022-12-31T23:33:25.131Z,10.93
2022-12-31T23:36:06.229Z,10.30
2022-12-31T23:38:32.860Z,9.95
2022-12-31T23:40:59.477Z,9.63
2022-12-31T23:43:26.081Z,9.05
2022-12-31T23:45:53.189Z,7.78
2022-12-31T23:48:20.044Z,5.82
2022-12-31T23:50:53.562Z,6.50
2022-12-31T23:53:24.927Z,5.90
2022-12-31T23:55:53.124Z,5.38
2022-12-31T23:58:21.076Z,5.30
